Time;durP1;ratioP1;P1;durP2;ratioP2;P2;SDS_P1;SDS_P2;PMS_P1;PMS_P2;Temp;Humidity;BMP_temperature;BMP_pressure;BME280_temperature;BME280_humidity;BME280_pressure;Samples;Min_cycle;Max_cycle;Signal;HPM_P1;HPM_P2
2023/08/04 00:00:07;;;;;;;2.33;2.13;;;15.00;99.90;;;;;;477975;249;28855;-81
2023/08/04 00:02:08;;;;;;;5.70;2.37;;;15.00;99.90;;;;;;477914;249;28876;-82
2023/08/04 00:04:09;;;;;;;3.50;2.37;;;15.00;99.90;;;;;;477971;249;28858;-82
2023/08/04 00:06:10;;;;;;;2.23;2.07;;;15.00;99.90;;;;;;478021;249;28833;-82
2023/08/04 00:08:12;;;;;;;2.80;2.30;;;15.10;99.90;;;;;;477956;249;28800;-83
2023/08/04 00:10:13;;;;;;;4.43;2.60;;;15.10;99.90;;;;;;477929;249;28786;-81
2023/08/04 00:12:14;;;;;;;2.87;2.20;;;15.00;99.90;;;;;;477962;249;28876;-81
2023/08/04 00:14:15;;;;;;;6.57;2.93;;;15.10;99.90;;;;;;477876;249;30120;-83
2023/08/04 00:16:17;;;;;;;16.50;2.57;;;15.10;99.90;;;;;;477856;249;29258;-82
2023/08/04 00:18:18;;;;;;;3.00;2.70;;;15.00;99.90;;;;;;477981;249;28931;-80
2023/08/04 00:20:19;;;;;;;3.43;2.43;;;15.10;99.90;;;;;;477958;249;28849;-82
2023/08/04 00:22:20;;;;;;;2.37;2.27;;;15.10;99.90;;;;;;477975;249;28885;-83
2023/08/04 00:24:22;;;;;;;3.93;2.33;;;15.10;99.90;;;;;;478025;249;28776;-85
2023/08/04 00:26:23;;;;;;;4.27;2.87;;;15.20;99.90;;;;;;478012;249;28860;-82
2023/08/04 00:28:24;;;;;;;2.67;2.33;;;15.10;99.90;;;;;;478017;249;28829;-80
2023/08/04 00:30:26;;;;;;;2.70;2.50;;;15.10;99.90;;;;;;478012;249;28838;-84
2023/08/04 00:32:27;;;;;;;6.50;2.73;;;15.10;99.90;;;;;;477756;249;28857;-80
2023/08/04 00:34:28;;;;;;;2.70;2.50;;;15.20;99.90;;;;;;477963;249;28874;-81
2023/08/04 00:36:29;;;;;;;3.20;2.53;;;15.20;99.90;;;;;;477998;249;28850;-83
2023/08/04 00:38:31;;;;;;;3.93;2.43;;;15.20;99.90;;;;;;477853;249;29428;-82
2023/08/04 00:40:32;;;;;;;2.93;2.60;;;15.20;99.90;;;;;;477975;249;29317;-81
2023/08/04 00:42:33;;;;;;;3.40;2.60;;;15.20;99.90;;;;;;477509;249;28851;-82
2023/08/04 00:44:36;;;;;;;4.87;3.10;;;15.20;99.90;;;;;;477883;249;28872;-81
2023/08/04 00:46:36;;;;;;;2.87;2.60;;;15.20;99.90;;;;;;477893;249;28790;-82
2023/08/04 00:48:38;;;;;;;2.97;2.60;;;15.20;99.90;;;;;;477535;249;28859;-80
2023/08/04 00:50:39;;;;;;;3.27;2.77;;;15.20;99.90;;;;;;477832;248;28766;-82
2023/08/04 00:52:39;;;;;;;3.30;2.43;;;15.10;99.90;;;;;;477886;248;28791;-83
2023/08/04 00:54:41;;;;;;;3.27;2.37;;;15.10;99.90;;;;;;477937;249;28900;-80
2023/08/04 00:56:42;;;;;;;3.33;2.60;;;15.10;99.90;;;;;;477882;249;28782;-83
2023/08/04 00:58:43;;;;;;;2.13;2.03;;;15.10;99.90;;;;;;477939;249;28866;-81
2023/08/04 01:00:44;;;;;;;3.13;2.30;;;15.10;99.90;;;;;;477848;249;28855;-80
2023/08/04 01:02:46;;;;;;;3.43;2.70;;;15.10;99.90;;;;;;477821;249;29313;-79
2023/08/04 01:04:47;;;;;;;2.97;2.63;;;15.10;99.90;;;;;;477969;249;29479;-80
2023/08/04 01:06:49;;;;;;;4.60;2.73;;;15.10;99.90;;;;;;477778;249;29263;-83
2023/08/04 01:08:49;;;;;;;3.00;2.60;;;15.10;99.90;;;;;;478052;249;28808;-80
2023/08/04 01:10:51;;;;;;;4.07;2.93;;;15.00;99.90;;;;;;477976;249;28885;-85
2023/08/04 01:12:52;;;;;;;2.57;2.30;;;15.00;99.90;;;;;;478058;249;28775;-82
2023/08/04 01:14:56;;;;;;;3.20;3.00;;;15.10;99.90;;;;;;477984;249;28853;-82
2023/08/04 01:16:57;;;;;;;3.87;2.43;;;15.10;99.90;;;;;;477908;249;28798;-79
2023/08/04 01:18:58;;;;;;;4.40;2.67;;;15.10;99.90;;;;;;478071;249;28761;-82
2023/08/04 01:20:59;;;;;;;3.10;2.83;;;15.10;99.90;;;;;;478066;249;29311;-82
2023/08/04 01:23:01;;;;;;;4.30;2.40;;;15.10;99.90;;;;;;478064;249;28890;-83
2023/08/04 01:25:02;;;;;;;2.90;2.70;;;15.10;99.90;;;;;;478055;249;28850;-80
2023/08/04 01:27:03;;;;;;;3.53;2.83;;;15.10;99.90;;;;;;477754;248;29290;-80
2023/08/04 01:29:05;;;;;;;2.83;2.53;;;15.10;99.90;;;;;;478065;249;28751;-82
2023/08/04 01:31:06;;;;;;;2.40;2.20;;;15.10;99.90;;;;;;477935;249;29344;-79
2023/08/04 01:33:07;;;;;;;3.87;3.40;;;15.10;99.90;;;;;;478087;249;29347;-82
2023/08/04 01:35:08;;;;;;;4.57;3.20;;;15.10;99.90;;;;;;478076;249;28854;-81
2023/08/04 01:37:09;;;;;;;3.23;2.93;;;15.10;99.90;;;;;;478092;249;28783;-80
2023/08/04 01:39:11;;;;;;;3.83;3.07;;;15.10;99.90;;;;;;478048;249;28829;-84
2023/08/04 01:41:12;;;;;;;4.03;2.90;;;15.10;99.90;;;;;;478154;249;28786;-82
2023/08/04 01:43:13;;;;;;;4.97;3.50;;;15.10;99.90;;;;;;477995;249;28853;-83
2023/08/04 01:45:14;;;;;;;5.83;3.17;;;15.10;99.90;;;;;;478241;249;28885;-79
2023/08/04 01:47:16;;;;;;;3.57;3.27;;;15.20;99.90;;;;;;478164;249;28778;-79
2023/08/04 01:49:17;;;;;;;6.40;3.53;;;15.10;99.90;;;;;;478261;249;28874;-79
2023/08/04 01:51:18;;;;;;;4.93;3.60;;;15.10;99.90;;;;;;478227;249;28802;-80
2023/08/04 01:53:19;;;;;;;3.20;2.90;;;15.10;99.90;;;;;;478167;247;29262;-81
2023/08/04 01:55:21;;;;;;;4.13;3.23;;;15.10;99.90;;;;;;478017;249;29350;-79
2023/08/04 01:57:22;;;;;;;7.17;4.00;;;15.10;99.90;;;;;;478027;249;29341;-80
2023/08/04 01:59:23;;;;;;;6.07;3.47;;;15.00;99.90;;;;;;477976;249;28843;-80
2023/08/04 02:01:25;;;;;;;3.63;3.33;;;15.00;99.90;;;;;;478068;249;28790;-82
2023/08/04 02:03:26;;;;;;;3.17;2.97;;;14.90;99.90;;;;;;478027;249;28860;-82
2023/08/04 02:05:27;;;;;;;3.60;3.27;;;15.00;99.90;;;;;;477966;249;28790;-82
2023/08/04 02:07:28;;;;;;;5.87;4.00;;;15.00;99.90;;;;;;477812;249;28823;-80
2023/08/04 02:09:30;;;;;;;3.50;3.20;;;14.90;99.90;;;;;;478095;249;28786;-82
2023/08/04 02:11:31;;;;;;;7.23;3.50;;;14.90;99.90;;;;;;478128;249;28911;-80
2023/08/04 02:13:32;;;;;;;5.40;3.40;;;14.90;99.90;;;;;;477956;249;28767;-81
2023/08/04 02:15:33;;;;;;;5.20;3.37;;;15.00;99.90;;;;;;478025;249;28795;-83
2023/08/04 02:17:35;;;;;;;3.53;2.77;;;15.00;99.90;;;;;;478128;246;29354;-79
2023/08/04 02:19:36;;;;;;;3.80;3.30;;;14.90;99.90;;;;;;478164;249;29246;-83
2023/08/04 02:21:37;;;;;;;3.77;2.93;;;14.90;99.90;;;;;;478106;249;29439;-81
2023/08/04 02:23:38;;;;;;;2.83;2.63;;;15.00;99.90;;;;;;478261;249;29168;-83
2023/08/04 02:25:40;;;;;;;3.70;3.40;;;15.00;99.90;;;;;;478256;249;28833;-82
2023/08/04 02:27:41;;;;;;;3.40;2.93;;;15.00;99.90;;;;;;478285;249;28839;-81
2023/08/04 02:29:42;;;;;;;3.13;2.83;;;15.00;99.90;;;;;;478008;249;28757;-82
2023/08/04 02:31:43;;;;;;;3.43;3.13;;;14.90;99.90;;;;;;478239;246;28916;-81
2023/08/04 02:33:45;;;;;;;2.63;2.43;;;15.00;99.90;;;;;;478206;249;28882;-81
2023/08/04 02:35:46;;;;;;;2.70;2.50;;;15.00;99.90;;;;;;478097;247;28837;-81
2023/08/04 02:37:47;;;;;;;2.47;2.27;;;15.00;99.90;;;;;;478136;246;28806;-83
2023/08/04 02:39:48;;;;;;;4.40;2.57;;;15.00;99.90;;;;;;477916;245;28745;-84
2023/08/04 02:41:50;;;;;;;2.80;2.60;;;15.00;99.90;;;;;;478256;246;28494;-79
2023/08/04 02:43:51;;;;;;;4.33;2.97;;;15.00;99.90;;;;;;478241;246;29432;-80
2023/08/04 02:45:52;;;;;;;3.30;3.00;;;15.00;99.90;;;;;;477977;249;29313;-81
2023/08/04 02:47:53;;;;;;;3.00;2.80;;;15.00;99.90;;;;;;478246;249;29339;-82
2023/08/04 02:49:55;;;;;;;3.23;3.03;;;14.90;99.90;;;;;;478112;249;28854;-79
2023/08/04 02:51:56;;;;;;;3.10;2.90;;;14.90;99.90;;;;;;478154;249;28779;-82
2023/08/04 02:53:57;;;;;;;4.00;3.23;;;14.90;99.90;;;;;;478282;249;28830;-80
2023/08/04 02:55:58;;;;;;;2.60;2.40;;;15.00;99.90;;;;;;478095;249;28830;-80
2023/08/04 02:58:00;;;;;;;2.43;2.23;;;14.90;99.90;;;;;;478239;249;28761;-79
2023/08/04 03:00:02;;;;;;;2.10;2.00;;;14.90;99.90;;;;;;478279;249;28885;-79
2023/08/04 03:02:02;;;;;;;2.20;2.10;;;14.90;99.90;;;;;;477865;249;28775;-78
2023/08/04 03:04:03;;;;;;;1.90;1.80;;;15.00;99.90;;;;;;478218;249;28796;-78
2023/08/04 03:06:05;;;;;;;1.80;1.70;;;15.00;99.90;;;;;;478266;249;28733;-79
2023/08/04 03:08:06;;;;;;;4.03;2.67;;;14.90;99.90;;;;;;478277;249;29371;-80
2023/08/04 03:10:07;;;;;;;2.10;1.90;;;15.00;99.90;;;;;;478286;249;29326;-83
2023/08/04 03:12:08;;;;;;;3.00;2.70;;;15.00;99.90;;;;;;478154;248;29372;-82
2023/08/04 03:14:10;;;;;;;2.80;2.60;;;14.90;99.90;;;;;;478258;247;28824;-79
2023/08/04 03:16:11;;;;;;;4.73;2.53;;;14.90;99.90;;;;;;477995;249;28877;-81
2023/08/04 03:18:12;;;;;;;3.97;3.10;;;14.90;99.90;;;;;;477859;246;28790;-80
2023/08/04 03:20:13;;;;;;;2.73;2.53;;;14.90;99.90;;;;;;478243;246;28829;-81
2023/08/04 03:22:15;;;;;;;2.40;2.30;;;14.90;99.90;;;;;;478052;246;28844;-81
2023/08/04 03:24:16;;;;;;;1.90;1.80;;;14.90;99.90;;;;;;478269;249;28784;-79
2023/08/04 03:26:17;;;;;;;2.13;2.03;;;14.90;99.90;;;;;;478264;246;28772;-84
2023/08/04 03:28:18;;;;;;;1.73;1.63;;;14.90;99.90;;;;;;478146;246;28839;-81
2023/08/04 03:30:20;;;;;;;1.70;1.60;;;14.90;99.90;;;;;;478158;246;28749;-81
2023/08/04 03:32:21;;;;;;;1.40;1.40;;;14.90;99.90;;;;;;478262;246;28768;-81
2023/08/04 03:34:22;;;;;;;1.50;1.40;;;14.90;99.90;;;;;;478231;246;29474;-80
2023/08/04 03:36:23;;;;;;;1.60;1.50;;;14.90;99.90;;;;;;478237;246;29031;-80
2023/08/04 03:38:25;;;;;;;1.63;1.53;;;14.90;99.90;;;;;;478251;249;28469;-81
2023/08/04 03:40:26;;;;;;;1.93;1.73;;;14.90;99.90;;;;;;478241;249;28860;-79
2023/08/04 03:42:27;;;;;;;1.50;1.40;;;14.90;99.90;;;;;;478097;249;28757;-78
2023/08/04 03:44:28;;;;;;;2.07;1.87;;;14.80;99.90;;;;;;478126;245;28866;-79
2023/08/04 03:46:30;;;;;;;1.60;1.50;;;14.80;99.90;;;;;;477985;246;28796;-78
2023/08/04 03:48:31;;;;;;;2.10;2.00;;;14.80;99.90;;;;;;481020;233;28459;-78
2023/08/04 03:50:32;;;;;;;2.60;1.70;;;14.80;99.90;;;;;;483070;246;28850;-80
2023/08/04 03:54:39;;;;;;;1.60;1.50;;;14.80;99.90;;;;;;462455;255;29493;-80
2023/08/04 03:56:40;;;;;;;2.53;1.77;;;14.80;99.90;;;;;;470096;250;29318;-79
2023/08/04 03:58:41;;;;;;;2.83;1.80;;;14.80;99.90;;;;;;477287;247;28969;-79
2023/08/04 04:00:42;;;;;;;1.47;1.37;;;14.80;99.90;;;;;;461945;258;28805;-81
2023/08/04 04:02:44;;;;;;;1.40;1.40;;;14.80;99.90;;;;;;462161;256;28828;-84
2023/08/04 04:04:45;;;;;;;1.33;1.30;;;14.80;99.90;;;;;;477422;250;28824;-77
2023/08/04 04:06:46;;;;;;;1.50;1.40;;;14.90;99.90;;;;;;462059;258;28934;-80
2023/08/04 04:10:55;;;;;;;1.90;1.80;;;14.80;99.90;;;;;;483040;236;28904;-81
2023/08/04 04:12:54;;;;;;;1.60;1.50;;;14.80;99.90;;;;;;489376;243;29261;-82
2023/08/04 04:14:55;;;;;;;1.87;1.60;;;14.80;99.90;;;;;;489517;237;29429;-82
2023/08/04 04:16:56;;;;;;;1.70;1.60;;;14.80;99.90;;;;;;483864;237;29341;-79
2023/08/04 04:18:58;;;;;;;1.77;1.67;;;14.80;99.90;;;;;;480622;248;28789;-82
2023/08/04 04:20:59;;;;;;;1.83;1.73;;;14.80;99.90;;;;;;480497;247;28765;-81
2023/08/04 04:23:00;;;;;;;1.77;1.67;;;14.80;99.90;;;;;;488250;244;28831;-78
2023/08/04 04:27:07;;;;;;;1.90;1.80;;;14.80;99.90;;;;;;488193;244;28862;-79
2023/08/04 04:29:08;;;;;;;1.60;1.50;;;14.80;99.90;;;;;;471823;253;28886;-82
2023/08/04 04:31:10;;;;;;;1.63;1.60;;;14.80;99.90;;;;;;487369;244;28442;-79
2023/08/04 04:33:11;;;;;;;1.87;1.77;;;14.80;99.90;;;;;;487604;244;28755;-82
2023/08/04 04:35:12;;;;;;;4.40;2.00;;;14.80;99.90;;;;;;487580;244;29234;-78
2023/08/04 04:37:13;;;;;;;3.37;2.10;;;14.90;99.90;;;;;;487351;243;29217;-81
2023/08/04 04:39:15;;;;;;;1.87;1.77;;;14.90;99.90;;;;;;487459;244;29261;-83
2023/08/04 04:41:16;;;;;;;1.80;1.70;;;14.90;99.90;;;;;;487612;244;28791;-79
2023/08/04 04:43:17;;;;;;;1.77;1.67;;;14.90;99.90;;;;;;487569;243;28779;-82
2023/08/04 04:45:18;;;;;;;1.90;1.80;;;14.90;99.90;;;;;;487587;244;28684;-82
2023/08/04 04:47:20;;;;;;;1.97;1.87;;;14.90;99.90;;;;;;487326;244;28735;-78
2023/08/04 04:49:21;;;;;;;1.80;1.70;;;14.90;99.90;;;;;;487457;243;28688;-79
2023/08/04 04:51:22;;;;;;;2.07;1.97;;;14.90;99.90;;;;;;487489;244;28724;-79
2023/08/04 04:53:23;;;;;;;1.83;1.73;;;14.90;99.90;;;;;;487593;244;28700;-84
2023/08/04 04:55:25;;;;;;;2.10;2.00;;;14.90;99.90;;;;;;487476;243;28735;-82
2023/08/04 04:57:26;;;;;;;2.83;2.00;;;14.90;99.90;;;;;;487581;244;28724;-80
2023/08/04 04:59:27;;;;;;;1.70;1.60;;;14.90;99.90;;;;;;487481;243;29172;-82
2023/08/04 05:01:28;;;;;;;2.00;1.90;;;14.90;99.90;;;;;;487568;244;29198;-80
2023/08/04 05:03:30;;;;;;;2.10;2.00;;;14.90;99.90;;;;;;487036;244;29805;-82
2023/08/04 05:05:31;;;;;;;1.70;1.60;;;14.90;99.90;;;;;;487672;244;28685;-81
2023/08/04 05:07:32;;;;;;;1.40;1.40;;;15.00;99.90;;;;;;487518;244;28791;-80
2023/08/04 05:09:33;;;;;;;1.80;1.70;;;15.00;99.90;;;;;;487627;244;28681;-83
2023/08/04 05:11:35;;;;;;;1.87;1.77;;;15.00;99.90;;;;;;487536;244;28752;-78
2023/08/04 05:13:36;;;;;;;1.53;1.43;;;15.00;99.90;;;;;;487110;243;28716;-81
2023/08/04 05:15:37;;;;;;;1.80;1.70;;;15.00;99.90;;;;;;487364;244;28713;-82
2023/08/04 05:17:39;;;;;;;1.73;1.63;;;15.00;99.90;;;;;;487561;244;28803;-78
2023/08/04 05:19:40;;;;;;;2.00;1.90;;;15.00;99.90;;;;;;487581;244;28787;-79
2023/08/04 05:21:41;;;;;;;2.80;2.20;;;15.00;99.90;;;;;;483376;240;28883;-80
2023/08/04 05:23:42;;;;;;;1.80;1.70;;;14.90;99.90;;;;;;459321;253;28918;-78
2023/08/04 05:25:44;;;;;;;3.20;1.70;;;14.90;99.90;;;;;;466494;251;29525;-78
2023/08/04 05:27:45;;;;;;;2.47;2.10;;;15.00;99.90;;;;;;468780;246;29560;-80
2023/08/04 05:29:46;;;;;;;2.30;2.20;;;15.00;99.90;;;;;;468088;249;28924;-78
2023/08/04 05:31:47;;;;;;;2.50;2.30;;;15.00;99.90;;;;;;468678;246;28940;-80
2023/08/04 05:33:49;;;;;;;2.57;2.37;;;14.90;99.90;;;;;;468812;246;28975;-80
2023/08/04 05:35:50;;;;;;;2.27;2.17;;;14.80;99.90;;;;;;468765;247;29692;-79
2023/08/04 05:37:51;;;;;;;2.90;2.70;;;14.70;99.90;;;;;;468795;249;28861;-78
2023/08/04 05:39:52;;;;;;;3.30;3.10;;;14.70;99.90;;;;;;468888;247;29208;-79
2023/08/04 05:41:54;;;;;;;3.03;2.83;;;14.70;99.90;;;;;;468694;247;28898;-79
2023/08/04 05:43:55;;;;;;;3.10;2.90;;;14.80;99.90;;;;;;473471;234;28956;-78
2023/08/04 05:45:56;;;;;;;3.90;3.60;;;14.70;99.90;;;;;;472934;246;28902;-85
2023/08/04 05:47:57;;;;;;;4.00;3.60;;;14.80;99.90;;;;;;473384;241;28974;-82
2023/08/04 05:49:59;;;;;;;3.60;3.30;;;14.70;99.90;;;;;;471570;249;30165;-79
2023/08/04 05:52:00;;;;;;;3.60;3.30;;;14.70;99.90;;;;;;471629;249;29585;-81
2023/08/04 05:54:01;;;;;;;3.43;3.10;;;14.70;99.90;;;;;;472500;248;29704;-81
2023/08/04 05:56:03;;;;;;;4.87;3.63;;;14.80;99.90;;;;;;472526;248;29369;-81
2023/08/04 05:58:04;;;;;;;3.60;3.30;;;14.70;99.90;;;;;;471323;252;28797;-81
2023/08/04 06:00:06;;;;;;;4.17;3.77;;;14.70;99.90;;;;;;471620;248;28806;-80
2023/08/04 06:02:06;;;;;;;3.97;3.60;;;14.60;99.90;;;;;;470441;253;28806;-81
2023/08/04 06:04:07;;;;;;;6.73;4.90;;;14.60;99.90;;;;;;471558;248;28816;-78
2023/08/04 06:06:09;;;;;;;6.93;5.30;;;14.40;99.90;;;;;;471654;248;28866;-80
2023/08/04 06:08:10;;;;;;;5.57;5.07;;;14.50;99.90;;;;;;471593;253;28802;-83
2023/08/04 06:10:11;;;;;;;6.37;5.07;;;14.50;99.90;;;;;;471574;248;28819;-80
2023/08/04 06:12:12;;;;;;;6.10;5.30;;;14.60;99.90;;;;;;471508;248;28829;-79
2023/08/04 06:14:14;;;;;;;6.97;5.47;;;14.50;99.90;;;;;;471569;248;29422;-80
2023/08/04 06:16:15;;;;;;;7.60;5.90;;;14.50;99.90;;;;;;471599;248;29422;-79
2023/08/04 06:18:17;;;;;;;5.80;5.20;;;14.50;99.90;;;;;;455110;244;30159;-80
2023/08/04 06:20:17;;;;;;;5.70;5.20;;;14.50;99.90;;;;;;468537;254;28923;-79
2023/08/04 06:22:19;;;;;;;7.10;6.40;;;14.40;99.90;;;;;;467824;252;28463;-79
2023/08/04 06:24:20;;;;;;;6.30;5.70;;;14.40;99.90;;;;;;468541;254;28839;-79
2023/08/04 06:26:21;;;;;;;7.27;5.43;;;14.30;99.90;;;;;;468467;254;28825;-81
2023/08/04 06:28:22;;;;;;;5.80;5.30;;;14.30;99.90;;;;;;468688;254;28884;-78
2023/08/04 06:30:24;;;;;;;6.10;5.30;;;14.40;99.90;;;;;;478641;235;28993;-80
2023/08/04 06:32:25;;;;;;;7.77;5.83;;;14.40;99.90;;;;;;480241;242;28427;-82
2023/08/04 06:34:26;;;;;;;5.33;4.93;;;14.30;99.90;;;;;;480826;244;28687;-79
2023/08/04 06:36:27;;;;;;;5.87;5.23;;;14.40;99.90;;;;;;486065;245;28789;-80
2023/08/04 06:38:29;;;;;;;5.30;4.80;;;14.40;99.90;;;;;;486114;243;29328;-78
2023/08/04 06:40:30;;;;;;;6.37;5.13;;;14.40;99.90;;;;;;486096;243;29511;-81
2023/08/04 06:42:31;;;;;;;6.57;5.97;;;14.50;99.90;;;;;;484448;242;28991;-82
2023/08/04 06:44:32;;;;;;;5.40;5.00;;;14.50;99.90;;;;;;484397;246;29353;-77
2023/08/04 06:46:34;;;;;;;6.07;4.80;;;14.50;99.90;;;;;;484485;246;29141;-80
2023/08/04 06:48:35;;;;;;;5.13;4.17;;;14.40;99.90;;;;;;484262;246;28481;-82
2023/08/04 06:50:36;;;;;;;4.60;4.20;;;14.40;99.90;;;;;;481533;240;28840;-82
2023/08/04 06:52:37;;;;;;;4.63;4.23;;;14.50;99.90;;;;;;479090;246;28753;-79
2023/08/04 06:56:45;;;;;;;6.27;4.53;;;14.40;99.90;;;;;;487346;239;29293;-83
2023/08/04 06:58:47;;;;;;;7.37;4.23;;;14.30;99.90;;;;;;497908;239;29099;-79
2023/08/04 07:00:48;;;;;;;4.87;4.37;;;14.40;99.90;;;;;;487893;242;28536;-80
2023/08/04 07:02:49;;;;;;;5.17;4.60;;;14.30;99.90;;;;;;497827;237;28821;-79
2023/08/04 07:04:50;;;;;;;4.70;3.50;;;14.40;99.90;;;;;;497359;237;28959;-77
2023/08/04 07:06:52;;;;;;;7.60;4.47;;;14.50;99.90;;;;;;479918;248;28506;-78
2023/08/04 07:08:53;;;;;;;4.13;3.73;;;14.50;99.90;;;;;;479731;245;28492;-79
2023/08/04 07:10:54;;;;;;;3.87;3.57;;;14.50;99.90;;;;;;479784;248;28771;-81
2023/08/04 07:12:55;;;;;;;3.73;3.43;;;14.50;99.90;;;;;;479841;248;29287;-78
2023/08/04 07:14:57;;;;;;;3.90;3.50;;;14.40;99.90;;;;;;479706;248;29581;-78
2023/08/04 07:16:58;;;;;;;4.00;3.50;;;14.40;99.90;;;;;;479612;247;29527;-80
2023/08/04 07:18:59;;;;;;;4.90;3.80;;;14.30;99.90;;;;;;479657;245;28570;-79
2023/08/04 07:21:00;;;;;;;3.20;2.90;;;14.30;99.90;;;;;;479603;245;28481;-78
2023/08/04 07:23:02;;;;;;;4.13;3.73;;;14.30;99.90;;;;;;479695;242;28639;-81
2023/08/04 07:25:03;;;;;;;3.23;3.00;;;14.30;99.90;;;;;;479724;248;28585;-79
2023/08/04 07:27:04;;;;;;;2.80;2.60;;;14.40;99.90;;;;;;479630;245;28740;-80
2023/08/04 07:29:05;;;;;;;3.27;2.97;;;14.50;99.90;;;;;;479717;247;28533;-78
2023/08/04 07:31:07;;;;;;;3.20;2.90;;;14.50;99.90;;;;;;479747;248;28298;-80
2023/08/04 07:33:08;;;;;;;3.20;2.90;;;14.30;99.90;;;;;;479613;248;28564;-80
2023/08/04 07:35:09;;;;;;;4.10;3.27;;;14.30;99.90;;;;;;479657;248;28577;-77
2023/08/04 07:37:10;;;;;;;3.20;2.90;;;14.30;99.90;;;;;;479716;245;29318;-80
2023/08/04 07:39:12;;;;;;;4.03;3.63;;;14.50;99.90;;;;;;479660;248;29270;-78
2023/08/04 07:41:13;;;;;;;4.53;3.57;;;14.40;99.90;;;;;;479735;245;29429;-78
2023/08/04 07:43:14;;;;;;;3.60;3.30;;;14.40;99.90;;;;;;479700;247;29377;-80
2023/08/04 07:45:15;;;;;;;3.80;3.40;;;14.60;99.90;;;;;;479719;248;28757;-79
2023/08/04 07:47:17;;;;;;;3.40;3.10;;;14.70;99.90;;;;;;478001;239;28809;-81
2023/08/04 07:51:23;;;;;;;4.30;3.50;;;14.80;99.90;;;;;;476192;241;28758;-81
2023/08/04 07:53:25;;;;;;;3.50;3.10;;;15.00;99.90;;;;;;467414;249;28898;-80
2023/08/04 07:55:26;;;;;;;3.97;3.60;;;15.10;99.90;;;;;;468592;248;28900;-79
2023/08/04 07:57:27;;;;;;;4.47;3.87;;;14.80;99.90;;;;;;468562;249;30200;-78
2023/08/04 07:59:28;;;;;;;4.10;3.20;;;14.80;99.90;;;;;;468581;248;29381;-78
2023/08/04 08:01:30;;;;;;;7.70;3.63;;;15.10;99.90;;;;;;466058;249;29596;-77
2023/08/04 08:03:31;;;;;;;4.20;3.90;;;15.00;99.90;;;;;;468492;248;29278;-78
2023/08/04 08:05:32;;;;;;;3.83;3.37;;;15.40;99.90;;;;;;467298;249;28863;-79
2023/08/04 08:07:33;;;;;;;4.13;3.50;;;15.60;99.90;;;;;;463777;248;28718;-84
2023/08/04 08:09:35;;;;;;;4.80;4.40;;;15.50;99.90;;;;;;474582;249;28888;-79
2023/08/04 08:11:36;;;;;;;5.00;4.33;;;15.40;99.90;;;;;;468703;241;28811;-78
2023/08/04 08:13:40;;;;;;;6.27;4.60;;;15.20;99.90;;;;;;468444;249;28874;-80
2023/08/04 08:15:38;;;;;;;5.67;4.10;;;14.70;99.90;;;;;;467611;241;28967;-81
2023/08/04 08:17:40;;;;;;;6.00;4.90;;;14.80;99.90;;;;;;468521;249;28990;-81
2023/08/04 08:19:41;;;;;;;8.97;5.80;;;14.90;99.90;;;;;;468685;248;28879;-80
2023/08/04 08:21:44;;;;;;;5.77;5.00;;;14.70;99.90;;;;;;468436;242;29522;-80
2023/08/04 08:23:43;;;;;;;6.53;5.30;;;15.00;99.90;;;;;;467751;248;29345;-80
2023/08/04 08:25:45;;;;;;;7.33;6.07;;;15.20;99.90;;;;;;468495;242;29741;-83
2023/08/04 08:27:46;;;;;;;6.60;5.80;;;15.40;99.90;;;;;;464981;248;29220;-81
2023/08/04 08:29:47;;;;;;;7.47;6.17;;;15.40;99.90;;;;;;468380;249;28995;-83
2023/08/04 08:31:48;;;;;;;6.03;5.50;;;15.30;99.90;;;;;;469373;248;28861;-82
2023/08/04 08:33:50;;;;;;;6.87;5.50;;;15.40;99.90;;;;;;472191;249;29017;-80
2023/08/04 08:35:51;;;;;;;6.70;5.17;;;15.70;99.90;;;;;;468687;248;28867;-79
2023/08/04 08:37:52;;;;;;;6.93;5.73;;;15.80;99.90;;;;;;467265;249;28869;-79
2023/08/04 08:39:53;;;;;;;6.93;5.97;;;15.80;99.90;;;;;;467536;248;28882;-82
2023/08/04 08:41:55;;;;;;;6.20;5.30;;;15.50;99.90;;;;;;467473;249;29020;-82
2023/08/04 08:43:56;;;;;;;7.20;6.10;;;15.60;99.90;;;;;;468177;241;28815;-81
2023/08/04 08:45:57;;;;;;;7.27;6.57;;;15.60;99.90;;;;;;467248;249;28937;-78
2023/08/04 08:47:58;;;;;;;7.00;6.17;;;15.50;99.90;;;;;;468700;248;29464;-80
2023/08/04 08:50:00;;;;;;;7.80;5.90;;;15.60;99.90;;;;;;474625;249;29396;-79
2023/08/04 08:52:01;;;;;;;6.17;5.50;;;15.40;99.90;;;;;;471983;244;29425;-77
2023/08/04 08:54:02;;;;;;;5.63;5.13;;;15.30;99.90;;;;;;470866;244;28779;-81
2023/08/04 08:56:03;;;;;;;6.10;5.60;;;15.50;99.90;;;;;;474666;244;28899;-77
2023/08/04 08:58:05;;;;;;;5.70;5.20;;;15.50;99.90;;;;;;468604;242;28885;-77
2023/08/04 09:00:06;;;;;;;6.50;5.90;;;15.70;99.90;;;;;;469619;242;28832;-81
2023/08/04 09:02:07;;;;;;;6.20;5.50;;;15.80;99.90;;;;;;468717;244;28880;-77
2023/08/04 09:04:08;;;;;;;6.20;5.13;;;15.70;99.90;;;;;;470810;242;28812;-80
2023/08/04 09:06:10;;;;;;;5.93;5.40;;;15.80;99.90;;;;;;469784;244;28769;-84
2023/08/04 09:08:11;;;;;;;5.80;5.30;;;15.50;99.90;;;;;;468692;244;28973;-79
2023/08/04 09:10:12;;;;;;;7.07;5.37;;;15.40;99.90;;;;;;469727;242;28895;-78
2023/08/04 09:12:13;;;;;;;5.77;5.23;;;15.30;99.90;;;;;;468560;244;29437;-78
2023/08/04 09:14:15;;;;;;;5.77;5.27;;;15.10;99.90;;;;;;469727;244;29368;-82
2023/08/04 09:16:16;;;;;;;5.33;4.83;;;15.10;99.90;;;;;;469598;244;29541;-79
2023/08/04 09:18:17;;;;;;;5.97;5.10;;;15.20;99.90;;;;;;468587;242;29321;-81
2023/08/04 09:20:18;;;;;;;4.87;4.43;;;15.30;99.90;;;;;;465900;240;30480;-81
2023/08/04 09:22:20;;;;;;;6.43;5.10;;;15.20;99.90;;;;;;463474;250;28878;-80
2023/08/04 09:24:21;;;;;;;6.57;5.07;;;15.20;99.90;;;;;;463458;250;28857;-82
2023/08/04 09:26:22;;;;;;;5.80;5.30;;;15.20;99.90;;;;;;463103;250;28969;-82
2023/08/04 09:28:23;;;;;;;5.60;5.07;;;15.00;99.90;;;;;;463458;250;28965;-80
2023/08/04 09:30:25;;;;;;;7.37;5.40;;;15.00;99.90;;;;;;463383;250;28886;-81
2023/08/04 09:32:26;;;;;;;5.77;4.73;;;15.00;99.90;;;;;;463320;250;28909;-79
2023/08/04 09:34:27;;;;;;;6.50;5.53;;;15.10;99.90;;;;;;466454;250;28895;-80
2023/08/04 09:36:28;;;;;;;5.57;4.77;;;15.10;99.90;;;;;;463427;250;28936;-81
2023/08/04 09:38:30;;;;;;;7.40;5.10;;;15.10;99.90;;;;;;463384;250;29698;-79
2023/08/04 09:40:31;;;;;;;6.17;4.93;;;15.00;99.90;;;;;;463201;250;29274;-79
2023/08/04 09:42:32;;;;;;;7.37;4.93;;;15.10;99.90;;;;;;463339;250;28916;-79
2023/08/04 09:44:33;;;;;;;6.87;5.10;;;15.30;99.90;;;;;;462856;250;28964;-80
2023/08/04 09:46:35;;;;;;;5.80;5.10;;;15.20;99.90;;;;;;463109;250;28800;-80
2023/08/04 09:48:36;;;;;;;7.83;5.43;;;15.30;99.90;;;;;;471386;250;28837;-83
2023/08/04 09:50:37;;;;;;;6.37;5.77;;;15.40;99.90;;;;;;463344;250;28825;-81
2023/08/04 09:52:38;;;;;;;6.30;5.20;;;15.60;99.90;;;;;;450205;249;29009;-82
2023/08/04 09:54:40;;;;;;;7.13;6.27;;;15.70;99.90;;;;;;462139;253;28839;-81
2023/08/04 09:56:41;;;;;;;7.33;6.40;;;15.30;99.90;;;;;;461059;250;28893;-81
2023/08/04 09:58:42;;;;;;;6.77;5.27;;;15.20;99.90;;;;;;462331;250;28800;-80
2023/08/04 10:00:43;;;;;;;5.43;4.93;;;15.40;99.90;;;;;;464509;250;29001;-78
2023/08/04 10:02:45;;;;;;;7.07;6.40;;;15.50;99.90;;;;;;462254;247;29647;-79
2023/08/04 10:04:46;;;;;;;7.83;6.20;;;15.50;99.90;;;;;;466871;250;29625;-82
2023/08/04 10:06:47;;;;;;;7.00;6.30;;;15.40;99.90;;;;;;464484;250;29488;-79
2023/08/04 10:08:48;;;;;;;6.47;5.87;;;15.70;99.90;;;;;;461888;253;29082;-79
2023/08/04 10:10:50;;;;;;;8.77;6.90;;;15.80;99.90;;;;;;454844;250;28971;-81
2023/08/04 10:12:52;;;;;;;11.30;7.03;;;15.40;99.90;;;;;;464366;250;28902;-79
2023/08/04 10:14:52;;;;;;;9.53;7.87;;;15.50;99.90;;;;;;462505;250;28947;-84
2023/08/04 10:23:10;;;;;;;7.13;6.43;;;15.80;99.90;;;;;;483102;245;29422;-83
2023/08/04 10:27:18;;;;;;;8.30;7.30;;;15.40;99.90;;;;;;479387;246;29242;-80
2023/08/04 10:29:19;;;;;;;8.07;7.27;;;15.30;99.90;;;;;;481694;235;28807;-81
2023/08/04 10:31:20;;;;;;;9.40;6.30;;;15.30;99.90;;;;;;485339;238;28828;-80
2023/08/04 10:33:22;;;;;;;8.53;6.50;;;15.70;99.90;;;;;;494097;238;28958;-79
2023/08/04 10:43:43;;;;;;;8.33;6.20;;;15.90;99.90;;;;;;488143;235;28941;-80
2023/08/04 10:56:13;;;;;;;7.93;7.13;;;15.80;99.90;;;;;;481015;236;28760;-79
2023/08/04 10:58:17;;;;;;;11.23;6.93;;;16.00;99.90;;;;;;472066;244;29617;-81
2023/08/04 11:00:15;;;;;;;12.30;7.60;;;16.20;99.90;;;;;;473406;241;29316;-80
2023/08/04 11:02:17;;;;;;;11.40;6.70;;;15.90;99.90;;;;;;475446;244;28879;-79
2023/08/04 11:08:34;;;;;;;12.10;6.63;;;16.10;99.90;;;;;;481367;239;28842;-81
2023/08/04 11:12:42;;;;;;;7.43;5.67;;;16.20;99.90;;;;;;479342;239;28904;-81